Time;durP1;ratioP1;P1;durP2;ratioP2;P2;SDS_P1;SDS_P2;PMS_P1;PMS_P2;Temp;Humidity;BMP_temperature;BMP_pressure;BME280_temperature;BME280_humidity;BME280_pressure;Samples;Min_cycle;Max_cycle;Signal;HPM_P1;HPM_P2
2022/07/04 00:01:45;;;;;;;;;;;;;;;-142.75;100.00;77182.53;4971680;28;20272;-67
2022/07/04 00:04:10;;;;;;;;;;;;;;;-142.75;100.00;77188.44;4972882;28;20397;-68
2022/07/04 00:06:36;;;;;;;;;;;;;;;-142.75;100.00;77184.50;4972966;28;19914;-67
2022/07/04 00:09:01;;;;;;;;;;;;;;;-142.75;100.00;77194.34;4972605;28;19960;-65
2022/07/04 00:11:26;;;;;;;;;;;;;;;-142.75;100.00;77202.22;4972893;28;20367;-65
2022/07/04 00:13:51;;;;;;;;;;;;;;;-142.75;100.00;77210.09;4971433;28;19921;-64
2022/07/04 00:16:16;;;;;;;;;;;;;;;-142.75;100.00;77219.94;4972796;28;19922;-65
2022/07/04 00:18:42;;;;;;;;;;;;;;;-142.75;100.00;77204.19;4972510;28;19969;-65
2022/07/04 00:21:07;;;;;;;;;;;;;;;-142.75;100.00;77196.31;4972730;28;19929;-65
2022/07/04 00:23:32;;;;;;;;;;;;;;;-142.75;100.00;77196.31;4972447;28;19922;-65
2022/07/04 00:25:57;;;;;;;;;;;;;;;-142.75;100.00;77192.38;4973189;28;19918;-65
2022/07/04 00:28:22;;;;;;;;;;;;;;;-142.75;100.00;77206.16;4972363;28;19918;-67
2022/07/04 00:30:48;;;;;;;;;;;;;;;-142.75;100.00;77202.22;4972565;28;20004;-67
2022/07/04 00:33:13;;;;;;;;;;;;;;;-142.75;100.00;77202.22;4972519;28;19953;-67
2022/07/04 00:35:38;;;;;;;;;;;;;;;-142.75;100.00;77198.28;4972586;28;19918;-67
2022/07/04 00:38:03;;;;;;;;;;;;;;;-142.75;100.00;77202.22;4972189;28;19914;-68
2022/07/04 00:40:29;;;;;;;;;;;;;;;-142.75;100.00;77198.28;4972389;28;20426;-68
2022/07/04 00:42:59;;;;;;;;;;;;;;;-142.75;100.00;77204.19;4972141;28;19918;-68
2022/07/04 00:45:24;;;;;;;;;;;;;;;-142.75;100.00;77200.25;4972543;28;19972;-67
2022/07/04 00:47:49;;;;;;;;;;;;;;;-142.75;100.00;77200.25;4972226;28;20387;-67
2022/07/04 00:50:15;;;;;;;;;;;;;;;-142.75;100.00;77204.19;4972187;28;19914;-66
2022/07/04 00:52:40;;;;;;;;;;;;;;;-142.75;100.00;77204.19;4972091;28;19921;-67
2022/07/04 00:55:05;;;;;;;;;;;;;;;-142.75;100.00;77214.03;4972237;28;20368;-67
2022/07/04 00:57:31;;;;;;;;;;;;;;;-142.75;100.00;77200.25;4971419;28;19972;-67
2022/07/04 00:59:56;;;;;;;;;;;;;;;-142.75;100.00;77214.03;4970775;28;19915;-67
2022/07/04 01:02:21;;;;;;;;;;;;;;;-142.75;100.00;77202.22;4969838;28;19984;-67
2022/07/04 01:04:46;;;;;;;;;;;;;;;-142.75;100.00;77202.22;4972008;28;19918;-68
2022/07/04 01:07:12;;;;;;;;;;;;;;;-142.75;100.00;77196.31;4971977;28;20330;-66
2022/07/04 01:09:37;;;;;;;;;;;;;;;-142.75;100.00;77192.38;4971732;28;19993;-67
2022/07/04 01:12:03;;;;;;;;;;;;;;;-142.75;100.00;77186.47;4970327;28;19914;-67
2022/07/04 01:14:28;;;;;;;;;;;;;;;-142.75;100.00;77182.53;4971559;28;19940;-67
2022/07/04 01:16:53;;;;;;;;;;;;;;;-142.75;100.00;77176.63;4971910;28;19969;-67
2022/07/04 01:19:18;;;;;;;;;;;;;;;-142.75;100.00;77170.72;4971561;28;19925;-67
2022/07/04 01:21:44;;;;;;;;;;;;;;;-142.75;100.00;77172.69;4971810;28;19914;-67
2022/07/04 01:24:13;;;;;;;;;;;;;;;-142.75;100.00;77172.69;4970475;28;19983;-66
2022/07/04 01:26:38;;;;;;;;;;;;;;;-142.75;100.00;77172.69;4971678;28;20315;-67
2022/07/04 01:29:03;;;;;;;;;;;;;;;-142.75;100.00;77168.75;4971455;28;20005;-67
2022/07/04 01:31:28;;;;;;;;;;;;;;;-142.75;100.00;77162.84;4971671;28;19958;-67
2022/07/04 01:33:53;;;;;;;;;;;;;;;-142.75;100.00;77168.75;4970334;28;19965;-67
2022/07/04 01:36:19;;;;;;;;;;;;;;;-142.75;100.00;77166.78;4971587;28;20004;-67
2022/07/04 01:38:44;;;;;;;;;;;;;;;-142.75;100.00;77168.75;4971276;28;19914;-67
2022/07/04 01:41:09;;;;;;;;;;;;;;;-142.75;100.00;77164.81;4971562;28;19914;-67
2022/07/04 01:43:35;;;;;;;;;;;;;;;-142.75;100.00;77170.72;4971323;28;19922;-67
2022/07/04 01:46:00;;;;;;;;;;;;;;;-142.75;100.00;77168.75;4971519;28;20402;-65
2022/07/04 01:48:25;;;;;;;;;;;;;;;-142.75;100.00;77174.66;4969978;28;20398;-65
2022/07/04 01:50:51;;;;;;;;;;;;;;;-142.75;100.00;77166.78;4971404;28;20368;-65
2022/07/04 01:53:16;;;;;;;;;;;;;;;-142.75;100.00;77166.78;4971239;28;19947;-65
2022/07/04 01:55:41;;;;;;;;;;;;;;;-142.75;100.00;77164.81;4971295;28;19914;-67
2022/07/04 01:58:06;;;;;;;;;;;;;;;-142.75;100.00;77172.69;4971045;28;19914;-67
2022/07/04 02:03:15;;;;;;;;;;;;;;;-142.75;100.00;77166.78;4969580;28;19929;-67
2022/07/04 02:05:42;;;;;;;;;;;;;;;-142.75;100.00;77176.63;4971062;28;19913;-67
2022/07/04 02:08:08;;;;;;;;;;;;;;;-142.75;100.00;77172.69;4970874;28;19918;-66
2022/07/04 02:10:33;;;;;;;;;;;;;;;-142.75;100.00;77168.75;4969905;28;19925;-67
2022/07/04 02:13:02;;;;;;;;;;;;;;;-142.75;100.00;77172.69;4971094;28;20399;-67
2022/07/04 02:15:31;;;;;;;;;;;;;;;-142.75;100.00;77164.81;4971049;28;19914;-67
2022/07/04 02:17:57;;;;;;;;;;;;;;;-142.75;100.00;77168.75;4970761;28;19914;-67
2022/07/04 02:20:22;;;;;;;;;;;;;;;-142.75;100.00;77158.91;4970890;28;19914;-67
2022/07/04 02:22:47;;;;;;;;;;;;;;;-142.75;100.00;77168.75;4970859;28;19971;-67
2022/07/04 02:25:13;;;;;;;;;;;;;;;-142.75;100.00;77168.75;4970782;28;19919;-67
2022/07/04 02:27:38;;;;;;;;;;;;;;;-142.75;100.00;77176.63;4970896;28;19953;-67
2022/07/04 02:30:04;;;;;;;;;;;;;;;-142.75;100.00;77168.75;4970624;28;19942;-67
2022/07/04 02:32:29;;;;;;;;;;;;;;;-142.75;100.00;77172.69;4969391;28;19918;-67
2022/07/04 02:34:55;;;;;;;;;;;;;;;-142.75;100.00;77172.69;4969468;28;19922;-67
2022/07/04 02:37:20;;;;;;;;;;;;;;;-142.75;100.00;77176.63;4970728;28;19915;-67
2022/07/04 02:39:45;;;;;;;;;;;;;;;-142.75;100.00;77172.69;4970427;28;20056;-67
2022/07/04 02:42:10;;;;;;;;;;;;;;;-142.75;100.00;77172.69;4970483;28;19944;-67
2022/07/04 02:44:35;;;;;;;;;;;;;;;-142.75;100.00;77178.59;4970639;28;20383;-66
2022/07/04 02:47:01;;;;;;;;;;;;;;;-142.75;100.00;77186.47;4970636;28;19914;-67
2022/07/04 02:49:26;;;;;;;;;;;;;;;-142.75;100.00;77186.47;4970272;28;20023;-67
2022/07/04 02:51:51;;;;;;;;;;;;;;;-142.75;100.00;77184.50;4970476;28;19915;-66
2022/07/04 02:54:16;;;;;;;;;;;;;;;-142.75;100.00;77184.50;4970540;28;19914;-67
2022/07/04 02:56:42;;;;;;;;;;;;;;;-142.75;100.00;77184.50;4970452;28;20004;-67
2022/07/04 02:59:07;;;;;;;;;;;;;;;-142.75;100.00;77184.50;4970266;28;19998;-67
2022/07/04 03:01:33;;;;;;;;;;;;;;;-142.75;100.00;77178.59;4970400;28;19918;-67
2022/07/04 03:03:58;;;;;;;;;;;;;;;-142.75;100.00;77176.63;4970226;28;20350;-67
2022/07/04 03:06:23;;;;;;;;;;;;;;;-142.75;100.00;77182.53;4970433;28;19921;-67
2022/07/04 03:08:48;;;;;;;;;;;;;;;-142.75;100.00;77172.69;4970136;28;19924;-67
2022/07/04 03:11:13;;;;;;;;;;;;;;;-142.75;100.00;77176.63;4970314;28;19918;-67
2022/07/04 03:13:39;;;;;;;;;;;;;;;-142.75;100.00;77176.63;4970293;28;20012;-67
2022/07/04 03:16:04;;;;;;;;;;;;;;;-142.75;100.00;77178.59;4970304;28;20441;-66
2022/07/04 03:18:30;;;;;;;;;;;;;;;-142.75;100.00;77178.59;4969939;28;20052;-67
2022/07/04 03:20:55;;;;;;;;;;;;;;;-142.75;100.00;77182.53;4971187;28;19921;-67
2022/07/04 03:23:20;;;;;;;;;;;;;;;-142.75;100.00;77178.59;4972281;28;19918;-67
2022/07/04 03:25:45;;;;;;;;;;;;;;;-142.75;100.00;77182.53;4973722;28;19918;-67
2022/07/04 03:28:11;;;;;;;;;;;;;;;-142.75;100.00;77180.56;4973246;28;20330;-67
2022/07/04 03:30:36;;;;;;;;;;;;;;;-142.75;100.00;77180.56;4973539;28;20004;-67
2022/07/04 03:33:01;;;;;;;;;;;;;;;-142.75;100.00;77186.47;4973359;28;19961;-67
2022/07/04 03:35:27;;;;;;;;;;;;;;;-142.75;100.00;77194.34;4973414;28;19914;-67
2022/07/04 03:37:52;;;;;;;;;;;;;;;-142.75;100.00;77194.34;4973192;28;20001;-66
2022/07/04 03:40:18;;;;;;;;;;;;;;;-142.75;100.00;77192.38;4973520;28;19996;-67
2022/07/04 03:42:43;;;;;;;;;;;;;;;-142.75;100.00;77192.38;4973144;28;19922;-67
2022/07/04 03:45:09;;;;;;;;;;;;;;;-142.75;100.00;77188.44;4973325;28;19922;-67
2022/07/04 03:47:34;;;;;;;;;;;;;;;-142.75;100.00;77184.50;4973213;28;20005;-67
2022/07/04 03:49:59;;;;;;;;;;;;;;;-142.75;100.00;77194.34;4972962;28;19917;-67
2022/07/04 03:52:24;;;;;;;;;;;;;;;-142.75;100.00;77194.34;4973092;28;19953;-67
2022/07/04 03:54:50;;;;;;;;;;;;;;;-142.75;100.00;77198.28;4973089;28;19914;-67
2022/07/04 03:57:15;;;;;;;;;;;;;;;-142.75;100.00;77192.38;4973162;28;19914;-67
2022/07/04 03:59:40;;;;;;;;;;;;;;;-142.75;100.00;77196.31;4971563;28;19914;-66
2022/07/04 04:02:06;;;;;;;;;;;;;;;-142.75;100.00;77194.34;4973021;28;20376;-67
2022/07/04 04:07:15;;;;;;;;;;;;;;;-142.75;100.00;77202.22;4972998;28;19921;-67
2022/07/04 04:09:40;;;;;;;;;;;;;;;-142.75;100.00;77212.06;4972746;28;19914;-67
2022/07/04 04:12:06;;;;;;;;;;;;;;;-142.75;100.00;77206.16;4972819;28;20378;-67
2022/07/04 04:14:31;;;;;;;;;;;;;;;-142.75;100.00;77212.06;4972873;28;19920;-67
2022/07/04 04:16:56;;;;;;;;;;;;;;;-142.75;100.00;77216.00;4972733;28;19921;-67
2022/07/04 04:19:21;;;;;;;;;;;;;;;-142.75;100.00;77210.09;4972560;28;19922;-67
2022/07/04 04:21:46;;;;;;;;;;;;;;;-142.75;100.00;77221.91;4972644;28;19937;-67
2022/07/04 04:24:11;;;;;;;;;;;;;;;-142.75;100.00;77231.75;4972589;28;19918;-67
2022/07/04 04:26:37;;;;;;;;;;;;;;;-142.75;100.00;77223.88;4972651;28;19914;-67
2022/07/04 04:29:02;;;;;;;;;;;;;;;-142.75;100.00;77223.88;4972383;28;19914;-67
2022/07/04 04:31:27;;;;;;;;;;;;;;;-142.75;100.00;77214.03;4972575;28;19914;-67
2022/07/04 04:33:53;;;;;;;;;;;;;;;-142.75;100.00;77210.09;4971666;28;19920;-67
2022/07/04 04:36:18;;;;;;;;;;;;;;;-142.75;100.00;77202.22;4972543;28;19967;-67
2022/07/04 04:38:43;;;;;;;;;;;;;;;-142.75;100.00;77210.09;4972242;28;19969;-67
2022/07/04 04:41:08;;;;;;;;;;;;;;;-142.75;100.00;77196.31;4972861;28;20331;-67
2022/07/04 04:43:33;;;;;;;;;;;;;;;-142.75;100.00;77194.34;4972133;28;19929;-67
2022/07/04 04:45:59;;;;;;;;;;;;;;;-142.75;100.00;77188.44;4972347;28;19918;-67
2022/07/04 04:48:24;;;;;;;;;;;;;;;-142.75;100.00;77180.56;4972063;28;19918;-67
2022/07/04 04:50:50;;;;;;;;;;;;;;;-142.75;100.00;77174.66;4971093;28;19921;-67
2022/07/04 04:53:15;;;;;;;;;;;;;;;-142.75;100.00;77170.72;4972132;28;19914;-67
2022/07/04 04:55:40;;;;;;;;;;;;;;;-142.75;100.00;77166.78;4972235;28;19914;-67
2022/07/04 04:58:05;;;;;;;;;;;;;;;-142.75;100.00;77182.53;4971912;28;19920;-67
2022/07/04 05:00:31;;;;;;;;;;;;;;;-142.75;100.00;77188.44;4972113;28;20257;-67
2022/07/04 05:02:56;;;;;;;;;;;;;;;-142.75;100.00;77178.59;4972058;28;20004;-67
2022/07/04 05:05:21;;;;;;;;;;;;;;;-142.75;100.00;77178.59;4972184;28;19925;-67
2022/07/04 05:07:47;;;;;;;;;;;;;;;-142.75;100.00;77176.63;4971851;28;19914;-67
2022/07/04 05:10:12;;;;;;;;;;;;;;;-142.75;100.00;77172.69;4971912;28;19918;-67
2022/07/04 05:12:37;;;;;;;;;;;;;;;-142.75;100.00;77174.66;4971886;28;19922;-66
2022/07/04 05:15:03;;;;;;;;;;;;;;;-142.75;100.00;77164.81;4971899;28;19942;-67
2022/07/04 05:17:28;;;;;;;;;;;;;;;-142.75;100.00;77153.00;4970638;28;19921;-66
2022/07/04 05:19:53;;;;;;;;;;;;;;;-142.75;100.00;77147.09;4971725;28;20421;-67
2022/07/04 05:22:18;;;;;;;;;;;;;;;-142.75;100.00;77141.19;4972019;28;19918;-67
2022/07/04 05:24:44;;;;;;;;;;;;;;;-142.75;100.00;77147.09;4971672;28;19918;-67
2022/07/04 05:27:09;;;;;;;;;;;;;;;-142.75;100.00;77143.16;4971783;28;20512;-67
2022/07/04 05:29:34;;;;;;;;;;;;;;;-142.75;100.00;77141.19;4971434;28;19921;-66
2022/07/04 05:32:00;;;;;;;;;;;;;;;-142.75;100.00;77141.19;4971555;28;19922;-66
2022/07/04 05:34:25;;;;;;;;;;;;;;;-142.75;100.00;77141.19;4971634;28;19922;-67
2022/07/04 05:36:50;;;;;;;;;;;;;;;-142.75;100.00;77137.25;4971531;28;19959;-67
2022/07/04 05:39:15;;;;;;;;;;;;;;;-142.75;100.00;77109.69;4971277;28;19999;-67
2022/07/04 05:41:41;;;;;;;;;;;;;;;-142.75;100.00;77105.75;4971519;28;19914;-67
2022/07/04 05:44:06;;;;;;;;;;;;;;;-142.75;100.00;77090.00;5056018;22;19932;-71
2022/07/04 05:46:31;;;;;;;;;;;;;;;-142.75;100.00;77068.34;5051746;28;19916;-70
2022/07/04 05:48:56;;;;;;;;;;;;;;;-142.75;100.00;77062.44;5052577;28;19913;-70
2022/07/04 05:51:22;;;;;;;;;;;;;;;-142.75;100.00;77046.69;5052918;28;19913;-70
2022/07/04 05:53:47;;;;;;;;;;;;;;;-142.75;100.00;77023.06;5052777;28;19913;-70
2022/07/04 05:56:12;;;;;;;;;;;;;;;-142.75;100.00;77015.19;5052896;28;20007;-71
2022/07/04 05:58:38;;;;;;;;;;;;;;;-142.75;100.00;76995.50;5052476;28;20533;-70
2022/07/04 06:01:03;;;;;;;;;;;;;;;-142.75;100.00;76975.81;5052715;28;19997;-71
2022/07/04 06:03:28;;;;;;;;;;;;;;;-142.75;100.00;76969.91;5052477;28;20310;-71
2022/07/04 06:05:53;;;;;;;;;;;;;;;-142.75;100.00;76960.06;5034762;28;19957;-71
2022/07/04 06:08:19;;;;;;;;;;;;;;;-142.75;100.00;76956.13;5052179;28;19920;-70
2022/07/04 06:10:45;;;;;;;;;;;;;;;-142.75;100.00;76932.50;5052573;28;20003;-70
2022/07/04 06:13:10;;;;;;;;;;;;;;;-142.75;100.00;76916.75;5034592;28;19995;-70
2022/07/04 06:15:35;;;;;;;;;;;;;;;-142.75;100.00;76901.00;5034600;28;20010;-70
2022/07/04 06:18:02;;;;;;;;;;;;;;;-142.75;100.00;76887.22;5052162;28;19917;-70
2022/07/04 06:20:27;;;;;;;;;;;;;;;-142.75;100.00;76863.59;5052267;28;19920;-71
2022/07/04 06:22:52;;;;;;;;;;;;;;;-142.75;100.00;76845.88;5052294;28;20282;-71
2022/07/04 06:25:18;;;;;;;;;;;;;;;-142.75;100.00;76834.06;5052319;28;19917;-70
2022/07/04 06:27:44;;;;;;;;;;;;;;;-142.75;100.00;76802.56;5051444;28;19952;-69
2022/07/04 06:30:10;;;;;;;;;;;;;;;-142.75;100.00;76798.66;5051125;28;19913;-69
2022/07/04 06:32:49;;;;;;;;;;;;;;;-142.75;100.00;76782.91;5051226;28;19919;-69
2022/07/04 06:38:00;;;;;;;;;;;;;;;-142.75;100.00;76751.41;5051498;28;19963;-69
2022/07/04 06:40:25;;;;;;;;;;;;;;;-142.75;100.00;76743.53;5051223;28;19912;-69
2022/07/04 06:42:51;;;;;;;;;;;;;;;-142.75;100.00;76727.78;5050775;28;19916;-69
2022/07/04 06:45:16;;;;;;;;;;;;;;;-142.75;100.00;76694.31;5033272;28;19920;-69
2022/07/04 06:47:42;;;;;;;;;;;;;;;-142.75;100.00;76684.47;5032987;28;20306;-68
2022/07/04 06:50:07;;;;;;;;;;;;;;;-142.75;100.00;76672.66;5050894;28;20267;-69
2022/07/04 06:52:34;;;;;;;;;;;;;;;-142.75;100.00;76651.00;5051118;28;20298;-70
2022/07/04 06:54:59;;;;;;;;;;;;;;;-142.75;100.00;76641.16;5050851;28;19995;-69
2022/07/04 06:57:24;;;;;;;;;;;;;;;-142.75;100.00;76639.19;5036656;28;20354;-69
2022/07/04 06:59:50;;;;;;;;;;;;;;;-142.75;100.00;76619.50;5054967;28;19920;-69
2022/07/04 07:02:15;;;;;;;;;;;;;;;-142.75;100.00;76613.59;5040544;28;19917;-69
2022/07/04 07:04:41;;;;;;;;;;;;;;;-142.75;100.00;76589.97;5035081;28;19921;-69
2022/07/04 07:07:06;;;;;;;;;;;;;;;-142.75;100.00;76568.31;5035172;28;19960;-70
2022/07/04 07:09:31;;;;;;;;;;;;;;;-142.75;100.00;76562.41;5034817;28;19920;-69
2022/07/04 07:11:56;;;;;;;;;;;;;;;-142.75;100.00;76548.63;5034941;28;19918;-69
2022/07/04 07:14:21;;;;;;;;;;;;;;;-142.75;100.00;76536.84;5017140;28;20369;-70
2022/07/04 07:16:47;;;;;;;;;;;;;;;-142.75;100.00;76562.41;5035055;28;20644;-69
2022/07/04 07:19:12;;;;;;;;;;;;;;;-142.75;100.00;76595.88;5016901;28;19913;-69
2022/07/04 07:21:37;;;;;;;;;;;;;;;-142.75;100.00;76578.16;5034867;28;19913;-70
2022/07/04 07:24:03;;;;;;;;;;;;;;;-142.75;100.00;76574.22;5035104;28;19927;-70
2022/07/04 07:26:29;;;;;;;;;;;;;;;-142.75;100.00;76591.94;5035723;28;20378;-71
2022/07/04 07:28:54;;;;;;;;;;;;;;;-142.75;100.00;76584.06;5017471;28;19913;-71
2022/07/04 07:31:19;;;;;;;;;;;;;;;-142.75;100.00;76603.75;5035213;28;19913;-70
2022/07/04 07:33:44;;;;;;;;;;;;;;;-142.75;100.00;76629.34;5035428;28;19920;-71
2022/07/04 07:36:09;;;;;;;;;;;;;;;-142.75;100.00;76660.84;5035528;28;20290;-71
2022/07/04 07:38:35;;;;;;;;;;;;;;;-142.75;100.00;76678.56;5017497;28;19952;-71
2022/07/04 07:41:00;;;;;;;;;;;;;;;-142.75;100.00;76684.47;5035423;28;20363;-71
2022/07/04 07:43:25;;;;;;;;;;;;;;;-142.75;100.00;76682.50;5035041;28;19925;-70
2022/07/04 07:45:50;;;;;;;;;;;;;;;-142.75;100.00;76684.47;5035245;28;19913;-70
2022/07/04 07:48:16;;;;;;;;;;;;;;;-142.75;100.00;76670.69;5034904;28;20012;-71
2022/07/04 07:50:41;;;;;;;;;;;;;;;-142.75;100.00;76651.00;5035144;28;19920;-71
2022/07/04 07:53:07;;;;;;;;;;;;;;;-142.75;100.00;76652.97;5035143;28;19917;-70
2022/07/04 07:55:32;;;;;;;;;;;;;;;-142.75;100.00;76660.84;5017312;28;19913;-71
2022/07/04 07:57:58;;;;;;;;;;;;;;;-142.75;100.00;76678.56;5034743;28;19920;-70
2022/07/04 08:00:24;;;;;;;;;;;;;;;-142.75;100.00;76688.41;5035084;28;19917;-71
2022/07/04 08:05:40;;;;;;;;;;;;;;;-142.75;100.00;76708.09;5026628;28;19963;-70
2022/07/04 08:08:07;;;;;;;;;;;;;;;-142.75;100.00;76719.91;5016765;28;19913;-71
2022/07/04 08:10:32;;;;;;;;;;;;;;;-142.75;100.00;76717.94;5017300;28;19913;-71
2022/07/04 08:12:58;;;;;;;;;;;;;;;-142.75;100.00;76735.66;5034771;28;19913;-71
2022/07/04 08:15:23;;;;;;;;;;;;;;;-142.75;100.00;76700.22;5034828;28;20382;-71
2022/07/04 08:17:49;;;;;;;;;;;;;;;-142.75;100.00;76641.16;5016748;28;19920;-70
2022/07/04 08:20:14;;;;;;;;;;;;;;;-142.75;100.00;76635.25;5034655;28;20004;-71
2022/07/04 08:22:39;;;;;;;;;;;;;;;-142.75;100.00;76631.31;5016783;28;19917;-71
2022/07/04 08:25:04;;;;;;;;;;;;;;;-142.75;100.00;76629.34;5034448;28;19917;-70
2022/07/04 08:27:30;;;;;;;;;;;;;;;-142.75;100.00;76647.06;5034568;28;19913;-71
2022/07/04 08:29:55;;;;;;;;;;;;;;;-142.75;100.00;76666.75;5016575;28;19980;-71
2022/07/04 08:32:20;;;;;;;;;;;;;;;-142.75;100.00;76637.22;5034403;28;19913;-71
2022/07/04 08:34:46;;;;;;;;;;;;;;;-142.75;100.00;76607.69;5034447;28;19936;-71
2022/07/04 08:37:12;;;;;;;;;;;;;;;-142.75;100.00;76570.28;5034418;28;19915;-71
2022/07/04 08:39:37;;;;;;;;;;;;;;;-142.75;100.00;76542.72;5033996;28;19919;-71
2022/07/04 08:42:05;;;;;;;;;;;;;;;-142.75;100.00;76534.84;5034326;28;20276;-72
2022/07/04 08:44:30;;;;;;;;;;;;;;;-142.75;100.00;76536.84;5034015;28;19921;-71
2022/07/04 08:46:55;;;;;;;;;;;;;;;-142.75;100.00;76558.47;5016365;28;19959;-70
2022/07/04 08:49:21;;;;;;;;;;;;;;;-142.75;100.00;76562.41;5033889;28;19960;-71
2022/07/04 08:51:51;;;;;;;;;;;;;;;-142.75;100.00;76566.34;5034120;28;19917;-71
2022/07/04 08:59:48;;;;;;;;;;;;;;;-142.75;100.00;76595.88;5043639;28;19927;-69
2022/07/04 09:02:14;;;;;;;;;;;;;;;-142.75;100.00;76599.81;5043521;28;19982;-69
2022/07/04 09:04:40;;;;;;;;;;;;;;;-142.75;100.00;76595.88;5042762;28;19921;-71
2022/07/04 09:07:05;;;;;;;;;;;;;;;-142.75;100.00;76607.69;5053437;28;20279;-71
2022/07/04 09:09:32;;;;;;;;;;;;;;;-142.75;100.00;76542.72;5053374;28;19919;-71
2022/07/04 09:11:57;;;;;;;;;;;;;;;-142.75;100.00;76528.97;5052687;28;20485;-71
2022/07/04 09:14:22;;;;;;;;;;;;;;;-142.75;100.00;76538.78;5053497;28;20011;-71
2022/07/04 09:16:51;;;;;;;;;;;;;;;-142.75;100.00;76544.69;5035609;28;19919;-71
2022/07/04 09:19:20;;;;;;;;;;;;;;;-142.75;100.00;76558.47;5034355;28;19958;-71
2022/07/04 09:21:46;;;;;;;;;;;;;;;-142.75;100.00;76566.34;5053528;28;20386;-71
2022/07/04 09:24:11;;;;;;;;;;;;;;;-142.75;100.00;76574.22;5053240;28;19917;-71
2022/07/04 09:26:39;;;;;;;;;;;;;;;-142.75;100.00;76586.03;5053401;28;20390;-71
2022/07/04 09:29:05;;;;;;;;;;;;;;;-142.75;100.00;76599.81;5053013;28;19912;-71
2022/07/04 09:31:31;;;;;;;;;;;;;;;-142.75;100.00;76540.75;5053264;28;19913;-71
2022/07/04 09:34:00;;;;;;;;;;;;;;;-142.75;100.00;76483.69;5053164;28;19977;-71
2022/07/04 09:36:26;;;;;;;;;;;;;;;-142.75;100.00;76460.06;5053264;28;19943;-71
2022/07/04 09:39:04;;;;;;;;;;;;;;;-142.75;100.00;76464.00;5035002;28;20410;-71
2022/07/04 09:41:29;;;;;;;;;;;;;;;-142.75;100.00;76487.63;5053098;28;19920;-71
2022/07/04 09:44:05;;;;;;;;;;;;;;;-142.75;100.00;76503.38;5052784;28;19921;-71
2022/07/04 09:46:31;;;;;;;;;;;;;;;-142.75;100.00;76527.00;5052927;28;19948;-72
2022/07/04 09:48:56;;;;;;;;;;;;;;;-142.75;100.00;76538.78;5052666;28;19975;-71
2022/07/04 09:51:37;;;;;;;;;;;;;;;-142.75;100.00;76523.06;5052903;28;19912;-71
2022/07/04 09:54:12;;;;;;;;;;;;;;;-142.75;100.00;76471.88;5052817;28;20394;-71
2022/07/04 09:56:45;;;;;;;;;;;;;;;-142.75;100.00;76420.69;5052647;28;20378;-71
2022/07/04 09:59:10;;;;;;;;;;;;;;;-142.75;100.00;76347.84;5052527;28;20003;-71
2022/07/04 10:01:36;;;;;;;;;;;;;;;-142.75;100.00;76302.59;5034856;28;20082;-70
2022/07/04 10:04:03;;;;;;;;;;;;;;;-142.75;100.00;76255.34;5052559;28;19924;-71
2022/07/04 10:06:31;;;;;;;;;;;;;;;-142.75;100.00;76206.13;5034807;28;19927;-71
2022/07/04 10:09:05;;;;;;;;;;;;;;;-142.75;98.13;76168.75;5052282;28;19913;-71
2022/07/04 10:11:33;;;;;;;;;;;;;;;-142.75;97.51;76160.88;5034727;28;20027;-71
2022/07/04 10:13:59;;;;;;;;;;;;;;;-142.75;92.29;76184.50;5052412;28;19920;-72
2022/07/04 10:16:24;;;;;;;;;;;;;;;-142.75;89.01;76223.84;5034640;28;20374;-71
2022/07/04 10:18:50;;;;;;;;;;;;;;;-142.75;94.23;76217.94;5052132;28;20007;-71
2022/07/04 10:21:15;;;;;;;;;;;;;;;-142.75;93.66;76221.88;5034584;28;19952;-72
2022/07/04 10:23:41;;;;;;;;;;;;;;;-142.75;97.99;76188.44;5052173;28;20429;-72
2022/07/04 10:26:07;;;;;;;;;;;;;;;-142.75;98.68;76180.56;5034477;28;19919;-72
2022/07/04 10:28:32;;;;;;;;;;;;;;;-142.75;93.89;76168.75;5034169;28;20012;-70
2022/07/04 10:30:58;;;;;;;;;;;;;;;-142.75;95.30;76113.63;5051359;28;19951;-72
2022/07/04 10:33:24;;;;;;;;;;;;;;;-142.75;96.04;76153.00;5052255;28;19970;-71
2022/07/04 10:35:50;;;;;;;;;;;;;;;-142.75;95.01;76129.38;5052195;28;20011;-71
2022/07/04 10:38:17;;;;;;;;;;;;;;;-142.75;98.58;76129.38;5051814;28;20000;-71
2022/07/04 10:40:47;;;;;;;;;;;;;;;-142.75;96.54;76093.94;5034658;28;20329;-71
2022/07/04 10:46:02;;;;;;;;;;;;;;;-142.75;91.47;76200.25;5052192;28;20298;-71
2022/07/04 10:48:29;;;;;;;;;;;;;;;-142.75;94.07;76215.97;5051065;28;21545;-71
2022/07/04 10:51:01;;;;;;;;;;;;;;;-142.75;97.67;76235.66;5052067;28;19960;-71
2022/07/04 10:53:27;;;;;;;;;;;;;;;-142.75;99.94;76294.72;5051954;28;20378;-71
2022/07/04 10:55:52;;;;;;;;;;;;;;;-142.75;100.00;76241.56;5052033;28;19913;-71
2022/07/04 10:58:37;;;;;;;;;;;;;;;-142.75;87.98;76182.53;5033870;28;19913;-71
2022/07/04 11:01:16;;;;;;;;;;;;;;;-142.75;85.50;76174.66;5052130;28;20346;-71
2022/07/04 11:03:48;;;;;;;;;;;;;;;-142.75;84.37;76147.09;5051893;28;19917;-71
2022/07/04 11:06:31;;;;;;;;;;;;;;;-142.75;85.79;76105.75;5052067;28;20326;-71
2022/07/04 11:09:12;;;;;;;;;;;;;;;-142.75;86.07;76068.38;5051599;28;19913;-71
2022/07/04 11:11:50;;;;;;;;;;;;;;;-142.75;78.48;76117.56;5051799;28;20367;-71
2022/07/04 11:14:34;;;;;;;;;;;;;;;-142.75;82.82;76184.50;5033884;28;20011;-72
2022/07/04 11:17:00;;;;;;;;;;;;;;;-142.75;81.21;76231.72;5033946;28;20568;-72
2022/07/04 11:19:25;;;;;;;;;;;;;;;-142.75;85.29;76255.34;5051627;28;20025;-71
2022/07/04 11:21:50;;;;;;;;;;;;;;;-142.75;87.05;76284.88;5051797;28;19912;-71
2022/07/04 11:24:16;;;;;;;;;;;;;;;-142.75;84.87;76239.59;5051571;28;20452;-72
2022/07/04 11:26:41;;;;;;;;;;;;;;;-142.75;91.79;76235.66;5033971;28;19916;-71
2022/07/04 11:29:07;;;;;;;;;;;;;;;-142.75;92.05;76217.94;5051427;28;19913;-71
2022/07/04 11:31:39;;;;;;;;;;;;;;;-142.75;90.44;76219.91;5033898;28;20390;-69
2022/07/04 11:34:04;;;;;;;;;;;;;;;-142.75;94.92;76200.25;5051539;28;19943;-71
2022/07/04 11:36:29;;;;;;;;;;;;;;;-142.75;95.70;76156.94;5051638;28;19921;-72
2022/07/04 11:38:56;;;;;;;;;;;;;;;-142.75;92.64;76111.66;5051267;28;19913;-71
2022/07/04 11:47:15;;;;;;;;;;;;;;;-142.75;79.75;76131.34;4933218;29;20327;-65
2022/07/04 11:50:00;;;;;;;;;;;;;;;-142.75;79.79;76145.13;4934601;28;19919;-65
2022/07/04 11:52:26;;;;;;;;;;;;;;;-142.75;79.95;76172.69;4934829;29;19915;-66
2022/07/04 11:54:52;;;;;;;;;;;;;;;-142.75;82.37;76208.09;4933314;29;20400;-68
2022/07/04 11:57:19;;;;;;;;;;;;;;;-142.75;82.88;76227.78;4934721;28;19977;-68
2022/07/04 11:59:52;;;;;;;;;;;;;;;-142.75;85.67;76202.19;4934703;29;19915;-65
2022/07/04 12:02:17;;;;;;;;;;;;;;;-142.75;86.45;76184.50;4934788;29;19921;-68
2022/07/04 12:04:42;;;;;;;;;;;;;;;-142.75;84.38;76200.25;4934521;29;20013;-68
2022/07/04 12:07:12;;;;;;;;;;;;;;;-142.75;84.16;76186.47;4934622;29;19914;-68
2022/07/04 12:09:37;;;;;;;;;;;;;;;-142.75;76.41;76200.25;4934321;29;19919;-68
2022/07/04 12:12:03;;;;;;;;;;;;;;;-142.75;81.87;76184.50;4934413;29;19926;-68
2022/07/04 12:14:28;;;;;;;;;;;;;;;-142.75;80.09;76221.88;4934368;28;19919;-68
2022/07/04 12:17:09;;;;;;;;;;;;;;;-142.75;79.72;76269.13;4934439;29;19915;-67
2022/07/04 12:19:35;;;;;;;;;;;;;;;-142.75;84.65;76198.28;4934226;29;19915;-68
2022/07/04 12:22:00;;;;;;;;;;;;;;;-142.75;83.04;76160.88;4934377;29;20369;-68
2022/07/04 12:24:28;;;;;;;;;;;;;;;-142.75;79.18;76125.44;4934125;29;19919;-68
2022/07/04 12:26:53;;;;;;;;;;;;;;;-142.75;77.93;76091.97;4934260;29;19938;-68
2022/07/04 12:29:22;;;;;;;;;;;;;;;-142.75;77.69;76060.50;4934224;29;20385;-68
2022/07/04 12:31:50;;;;;;;;;;;;;;;-142.75;75.72;76027.03;4934283;29;19942;-68
2022/07/04 12:34:16;;;;;;;;;;;;;;;-142.75;75.77;76001.44;4934231;29;20028;-68
2022/07/04 12:37:07;;;;;;;;;;;;;;;-142.75;79.21;75964.03;4934128;28;19962;-64
2022/07/04 12:39:34;;;;;;;;;;;;;;;-142.75;76.20;75966.00;4937316;28;19968;-68